sensor_id;sensor_type;location;lat;lon;timestamp;pressure;altitude;pressure_sealevel;temperature;humidity
48077;BME280;33854;57.708;12.008;2023-03-21T00:00:28;97218.63;;;4.26;100.00
48077;BME280;33854;57.708;12.008;2023-03-21T00:02:54;97199.03;;;4.24;100.00
48077;BME280;33854;57.708;12.008;2023-03-21T00:05:19;97184.50;;;4.23;100.00
48077;BME280;33854;57.708;12.008;2023-03-21T00:07:46;97189.66;;;4.23;100.00
48077;BME280;33854;57.708;12.008;2023-03-21T00:10:11;97172.78;;;4.19;100.00
48077;BME280;33854;57.708;12.008;2023-03-21T00:12:37;97165.84;;;4.19;100.00
48077;BME280;33854;57.708;12.008;2023-03-21T00:15:05;97152.22;;;4.17;100.00
48077;BME280;33854;57.708;12.008;2023-03-21T00:17:31;97159.28;;;4.15;100.00
48077;BME280;33854;57.708;12.008;2023-03-21T00:20:03;97147.44;;;4.24;100.00
48077;BME280;33854;57.708;12.008;2023-03-21T00:22:40;97139.69;;;4.24;100.00
48077;BME280;33854;57.708;12.008;2023-03-21T00:25:07;97138.84;;;4.23;100.00
48077;BME280;33854;57.708;12.008;2023-03-21T00:27:33;97140.84;;;4.20;100.00
48077;BME280;33854;57.708;12.008;2023-03-21T00:29:59;97126.78;;;4.24;100.00
48077;BME280;33854;57.708;12.008;2023-03-21T00:32:25;97133.94;;;4.20;100.00
48077;BME280;33854;57.708;12.008;2023-03-21T00:34:50;97141.69;;;4.20;100.00
48077;BME280;33854;57.708;12.008;2023-03-21T00:37:16;97141.69;;;4.20;100.00
48077;BME280;33854;57.708;12.008;2023-03-21T00:39:43;97136.06;;;4.15;100.00
48077;BME280;33854;57.708;12.008;2023-03-21T00:42:12;97157.38;;;4.17;100.00
48077;BME280;33854;57.708;12.008;2023-03-21T00:44:37;97165.25;;;4.16;100.00
48077;BME280;33854;57.708;12.008;2023-03-21T00:47:05;97158.44;;;4.03;100.00
48077;BME280;33854;57.708;12.008;2023-03-21T00:49:31;97163.84;;;4.12;100.00
48077;BME280;33854;57.708;12.008;2023-03-21T00:52:03;97168.19;;;4.11;100.00
48077;BME280;33854;57.708;12.008;2023-03-21T00:54:31;97159.50;;;4.12;100.00
48077;BME280;33854;57.708;12.008;2023-03-21T00:56:57;97165.97;;;4.07;100.00
48077;BME280;33854;57.708;12.008;2023-03-21T00:59:22;97183.44;;;4.03;100.00
48077;BME280;33854;57.708;12.008;2023-03-21T01:01:48;97177.44;;;4.02;100.00
48077;BME280;33854;57.708;12.008;2023-03-21T01:04:13;97173.34;;;4.00;100.00
48077;BME280;33854;57.708;12.008;2023-03-21T01:06:42;97160.19;;;3.92;100.00
48077;BME280;33854;57.708;12.008;2023-03-21T01:09:14;97158.44;;;4.03;100.00
48077;BME280;33854;57.708;12.008;2023-03-21T01:11:39;97176.75;;;4.00;100.00
48077;BME280;33854;57.708;12.008;2023-03-21T01:14:06;97170.53;;;3.92;100.00
48077;BME280;33854;57.708;12.008;2023-03-21T01:16:31;97171.94;;;3.96;100.00
48077;BME280;33854;57.708;12.008;2023-03-21T01:18:57;97170.38;;;3.93;100.00
48077;BME280;33854;57.708;12.008;2023-03-21T01:21:23;97160.78;;;3.95;100.00
48077;BME280;33854;57.708;12.008;2023-03-21T01:23:49;97153.75;;;3.86;100.00
48077;BME280;33854;57.708;12.008;2023-03-21T01:26:15;97139.09;;;3.87;100.00
48077;BME280;33854;57.708;12.008;2023-03-21T01:28:42;97136.06;;;3.93;100.00
48077;BME280;33854;57.708;12.008;2023-03-21T01:31:10;97099.94;;;3.93;100.00
48077;BME280;33854;57.708;12.008;2023-03-21T01:33:36;97074.03;;;3.94;100.00
48077;BME280;33854;57.708;12.008;2023-03-21T01:36:02;97076.13;;;3.89;100.00
48077;BME280;33854;57.708;12.008;2023-03-21T01:38:28;97073.09;;;3.84;100.00
48077;BME280;33854;57.708;12.008;2023-03-21T01:40:55;97060.31;;;3.72;100.00
48077;BME280;33854;57.708;12.008;2023-03-21T01:43:24;97065.09;;;3.65;100.00
48077;BME280;33854;57.708;12.008;2023-03-21T01:48:36;97068.97;;;3.60;100.00
48077;BME280;33854;57.708;12.008;2023-03-21T01:51:04;97046.13;;;3.55;100.00
48077;BME280;33854;57.708;12.008;2023-03-21T01:53:32;97044.72;;;3.62;100.00
48077;BME280;33854;57.708;12.008;2023-03-21T01:56:02;97031.00;;;3.73;100.00
48077;BME280;33854;57.708;12.008;2023-03-21T01:58:28;97039.69;;;3.72;100.00
48077;BME280;33854;57.708;12.008;2023-03-21T02:00:55;97053.97;;;3.65;100.00
48077;BME280;33854;57.708;12.008;2023-03-21T02:03:21;97042.97;;;3.63;100.00
48077;BME280;33854;57.708;12.008;2023-03-21T02:05:59;97056.06;;;3.60;100.00
48077;BME280;33854;57.708;12.008;2023-03-21T02:08:27;97057.13;;;3.57;100.00
48077;BME280;33854;57.708;12.008;2023-03-21T02:10:53;97051.63;;;3.62;100.00
48077;BME280;33854;57.708;12.008;2023-03-21T02:13:19;97055.03;;;3.62;100.00
48077;BME280;33854;57.708;12.008;2023-03-21T02:18:39;97056.66;;;3.63;100.00
48077;BME280;33854;57.708;12.008;2023-03-21T02:24:21;97068.75;;;3.63;100.00
48077;BME280;33854;57.708;12.008;2023-03-21T02:27:01;97068.75;;;3.63;100.00
48077;BME280;33854;57.708;12.008;2023-03-21T02:40:39;97078.47;;;3.59;100.00
48077;BME280;33854;57.708;12.008;2023-03-21T02:43:14;97084.34;;;3.61;100.00
48077;BME280;33854;57.708;12.008;2023-03-21T02:45:47;97051.28;;;3.55;100.00
48077;BME280;33854;57.708;12.008;2023-03-21T02:48:51;97078.00;;;3.65;100.00
48077;BME280;33854;57.708;12.008;2023-03-21T02:51:13;97071.78;;;3.68;100.00
48077;BME280;33854;57.708;12.008;2023-03-21T02:53:42;97070.97;;;3.67;100.00
48077;BME280;33854;57.708;12.008;2023-03-21T02:56:10;97080.47;;;3.67;100.00
48077;BME280;33854;57.708;12.008;2023-03-21T02:58:36;97069.09;;;3.58;100.00
48077;BME280;33854;57.708;12.008;2023-03-21T03:01:03;97097.78;;;3.65;100.00
48077;BME280;33854;57.708;12.008;2023-03-21T03:03:31;97096.28;;;3.62;100.00
48077;BME280;33854;57.708;12.008;2023-03-21T03:05:58;97087.47;;;3.54;100.00
48077;BME280;33854;57.708;12.008;2023-03-21T03:10:59;97106.81;;;3.59;100.00
48077;BME280;33854;57.708;12.008;2023-03-21T03:19:27;97115.06;;;3.64;100.00
48077;BME280;33854;57.708;12.008;2023-03-21T03:21:58;97118.41;;;3.65;100.00
48077;BME280;33854;57.708;12.008;2023-03-21T03:25:00;97104.97;;;3.61;100.00
48077;BME280;33854;57.708;12.008;2023-03-21T03:27:31;97101.09;;;3.67;100.00
48077;BME280;33854;57.708;12.008;2023-03-21T03:29:59;97097.56;;;3.68;100.00
48077;BME280;33854;57.708;12.008;2023-03-21T03:32:50;97102.72;;;3.57;100.00
48077;BME280;33854;57.708;12.008;2023-03-21T03:35:19;97117.34;;;3.56;100.00
48077;BME280;33854;57.708;12.008;2023-03-21T03:37:49;97119.94;;;3.56;100.00
48077;BME280;33854;57.708;12.008;2023-03-21T03:42:53;97125.09;;;3.56;100.00
48077;BME280;33854;57.708;12.008;2023-03-21T03:45:24;97137.66;;;3.61;100.00
48077;BME280;33854;57.708;12.008;2023-03-21T03:50:44;97139.88;;;3.65;100.00
48077;BME280;33854;57.708;12.008;2023-03-21T03:53:19;97136.00;;;3.60;100.00
48077;BME280;33854;57.708;12.008;2023-03-21T03:55:46;97151.69;;;3.57;100.00
48077;BME280;33854;57.708;12.008;2023-03-21T03:58:17;97154.72;;;3.51;100.00
48077;BME280;33854;57.708;12.008;2023-03-21T04:00:44;97147.22;;;3.47;100.00
48077;BME280;33854;57.708;12.008;2023-03-21T04:03:10;97144.63;;;3.47;100.00
48077;BME280;33854;57.708;12.008;2023-03-21T04:05:35;97141.13;;;3.49;100.00
48077;BME280;33854;57.708;12.008;2023-03-21T04:08:01;97132.47;;;3.50;100.00
48077;BME280;33854;57.708;12.008;2023-03-21T04:10:27;97125.44;;;3.52;100.00
48077;BME280;33854;57.708;12.008;2023-03-21T04:12:53;97123.69;;;3.52;100.00
48077;BME280;33854;57.708;12.008;2023-03-21T04:15:18;97111.50;;;3.54;100.00
48077;BME280;33854;57.708;12.008;2023-03-21T04:17:44;97106.56;;;3.51;100.00
48077;BME280;33854;57.708;12.008;2023-03-21T04:20:10;97101.19;;;3.43;100.00
48077;BME280;33854;57.708;12.008;2023-03-21T04:22:36;97112.78;;;3.49;100.00
48077;BME280;33854;57.708;12.008;2023-03-21T04:25:02;97110.09;;;3.50;100.00
48077;BME280;33854;57.708;12.008;2023-03-21T04:27:30;97117.00;;;3.50;100.00
48077;BME280;33854;57.708;12.008;2023-03-21T04:29:56;97092.53;;;3.55;100.00
48077;BME280;33854;57.708;12.008;2023-03-21T04:32:22;97089.22;;;3.53;100.00
48077;BME280;33854;57.708;12.008;2023-03-21T04:34:49;97094.97;;;3.57;100.00
48077;BME280;33854;57.708;12.008;2023-03-21T04:37:19;97097.69;;;3.55;100.00
48077;BME280;33854;57.708;12.008;2023-03-21T04:39:45;97090.66;;;3.57;100.00
48077;BME280;33854;57.708;12.008;2023-03-21T04:42:13;97080.94;;;3.50;100.00
48077;BME280;33854;57.708;12.008;2023-03-21T04:44:39;97100.59;;;3.51;100.00
48077;BME280;33854;57.708;12.008;2023-03-21T04:47:05;97110.91;;;3.51;100.00
48077;BME280;33854;57.708;12.008;2023-03-21T04:49:30;97118.63;;;3.51;100.00
48077;BME280;33854;57.708;12.008;2023-03-21T04:51:56;97105.19;;;3.47;100.00
48077;BME280;33854;57.708;12.008;2023-03-21T04:54:21;97117.72;;;3.52;100.00
48077;BME280;33854;57.708;12.008;2023-03-21T04:56:47;97119.38;;;3.53;100.00
48077;BME280;33854;57.708;12.008;2023-03-21T04:59:14;97115.97;;;3.52;100.00
48077;BME280;33854;57.708;12.008;2023-03-21T05:01:40;97117.50;;;3.55;100.00
48077;BME280;33854;57.708;12.008;2023-03-21T05:04:08;97119.13;;;3.56;100.00
48077;BME280;33854;57.708;12.008;2023-03-21T05:06:34;97123.00;;;3.50;100.00
48077;BME280;33854;57.708;12.008;2023-03-21T05:09:02;97134.34;;;3.47;100.00
48077;BME280;33854;57.708;12.008;2023-03-21T05:11:30;97130.97;;;3.47;100.00
48077;BME280;33854;57.708;12.008;2023-03-21T05:13:56;97133.19;;;3.52;100.00
48077;BME280;33854;57.708;12.008;2023-03-21T05:16:21;97131.31;;;3.54;100.00
48077;BME280;33854;57.708;12.008;2023-03-21T05:18:51;97130.16;;;3.58;100.00
48077;BME280;33854;57.708;12.008;2023-03-21T05:21:17;97128.16;;;3.61;100.00
48077;BME280;33854;57.708;12.008;2023-03-21T05:23:43;97126.53;;;3.60;100.00
48077;BME280;33854;57.708;12.008;2023-03-21T05:26:09;97128.97;;;3.62;100.00
48077;BME280;33854;57.708;12.008;2023-03-21T05:28:35;97122.66;;;3.55;100.00
48077;BME280;33854;57.708;12.008;2023-03-21T05:31:05;97145.94;;;3.53;100.00
48077;BME280;33854;57.708;12.008;2023-03-21T05:33:30;97154.50;;;3.54;100.00
48077;BME280;33854;57.708;12.008;2023-03-21T05:35:56;97174.19;;;3.55;100.00
48077;BME280;33854;57.708;12.008;2023-03-21T05:38:23;97188.38;;;3.49;100.00
48077;BME280;33854;57.708;12.008;2023-03-21T05:40:49;97198.78;;;3.47;100.00
48077;BME280;33854;57.708;12.008;2023-03-21T05:43:15;97193.03;;;3.44;100.00
48077;BME280;33854;57.708;12.008;2023-03-21T05:45:41;97196.69;;;3.53;100.00
48077;BME280;33854;57.708;12.008;2023-03-21T05:48:07;97196.31;;;3.46;100.00
48077;BME280;33854;57.708;12.008;2023-03-21T05:50:32;97217.59;;;3.37;100.00
48077;BME280;33854;57.708;12.008;2023-03-21T05:52:58;97216.44;;;3.30;100.00
48077;BME280;33854;57.708;12.008;2023-03-21T05:55:23;97209.41;;;3.32;100.00
48077;BME280;33854;57.708;12.008;2023-03-21T05:57:49;97196.81;;;3.27;100.00
48077;BME280;33854;57.708;12.008;2023-03-21T06:00:15;97202.31;;;3.23;100.00
48077;BME280;33854;57.708;12.008;2023-03-21T06:02:41;97197.28;;;3.21;100.00
48077;BME280;33854;57.708;12.008;2023-03-21T06:05:06;97187.44;;;3.15;100.00
48077;BME280;33854;57.708;12.008;2023-03-21T06:07:32;97177.66;;;3.31;100.00
48077;BME280;33854;57.708;12.008;2023-03-21T06:09:58;97171.78;;;3.29;100.00
48077;BME280;33854;57.708;12.008;2023-03-21T06:12:23;97164.88;;;3.30;100.00
48077;BME280;33854;57.708;12.008;2023-03-21T06:14:49;97170.88;;;3.41;100.00
48077;BME280;33854;57.708;12.008;2023-03-21T06:17:14;97156.59;;;3.37;100.00
48077;BME280;33854;57.708;12.008;2023-03-21T06:19:40;97163.13;;;3.41;100.00
48077;BME280;33854;57.708;12.008;2023-03-21T06:22:06;97156.97;;;3.44;100.00
48077;BME280;33854;57.708;12.008;2023-03-21T06:24:31;97155.16;;;3.33;100.00
48077;BME280;33854;57.708;12.008;2023-03-21T06:26:57;97149.66;;;3.27;100.00
48077;BME280;33854;57.708;12.008;2023-03-21T06:29:22;97142.03;;;3.36;100.00
48077;BME280;33854;57.708;12.008;2023-03-21T06:31:48;97115.13;;;3.40;100.00
48077;BME280;33854;57.708;12.008;2023-03-21T06:34:13;97107.47;;;3.39;100.00
48077;BME280;33854;57.708;12.008;2023-03-21T06:36:39;97102.00;;;3.43;100.00
48077;BME280;33854;57.708;12.008;2023-03-21T06:39:05;97086.63;;;3.31;100.00
48077;BME280;33854;57.708;12.008;2023-03-21T06:41:32;97097.53;;;3.45;100.00
48077;BME280;33854;57.708;12.008;2023-03-21T06:43:58;97093.91;;;3.37;100.00
48077;BME280;33854;57.708;12.008;2023-03-21T06:46:23;97099.66;;;3.40;100.00
48077;BME280;33854;57.708;12.008;2023-03-21T06:48:49;97103.16;;;3.39;100.00
48077;BME280;33854;57.708;12.008;2023-03-21T06:51:14;97104.59;;;3.43;100.00
48077;BME280;33854;57.708;12.008;2023-03-21T06:53:40;97095.66;;;3.47;100.00
48077;BME280;33854;57.708;12.008;2023-03-21T06:56:08;97086.91;;;3.50;100.00
48077;BME280;33854;57.708;12.008;2023-03-21T06:58:34;97094.66;;;3.50;100.00
48077;BME280;33854;57.708;12.008;2023-03-21T07:01:00;97087.00;;;3.49;100.00
48077;BME280;33854;57.708;12.008;2023-03-21T07:03:27;97088.44;;;3.53;100.00
48077;BME280;33854;57.708;12.008;2023-03-21T07:05:53;97096.16;;;3.53;100.00
48077;BME280;33854;57.708;12.008;2023-03-21T07:08:19;97081.03;;;3.48;100.00
48077;BME280;33854;57.708;12.008;2023-03-21T07:10:44;97104.00;;;3.51;100.00
48077;BME280;33854;57.708;12.008;2023-03-21T07:13:11;97105.88;;;3.49;100.00
48077;BME280;33854;57.708;12.008;2023-03-21T07:15:37;97100.97;;;3.57;100.00
48077;BME280;33854;57.708;12.008;2023-03-21T07:18:04;97098.28;;;3.59;100.00
48077;BME280;33854;57.708;12.008;2023-03-21T07:20:30;97089.72;;;3.47;100.00
48077;BME280;33854;57.708;12.008;2023-03-21T07:22:56;97121.22;;;3.62;100.00
48077;BME280;33854;57.708;12.008;2023-03-21T07:25:21;97121.72;;;3.67;100.00
48077;BME280;33854;57.708;12.008;2023-03-21T07:27:47;97133.44;;;3.71;100.00
48077;BME280;33854;57.708;12.008;2023-03-21T07:30:13;97131.59;;;3.73;100.00
48077;BME280;33854;57.708;12.008;2023-03-21T07:32:39;97137.66;;;3.72;100.00
48077;BME280;33854;57.708;12.008;2023-03-21T07:35:06;97142.47;;;3.76;100.00
48077;BME280;33854;57.708;12.008;2023-03-21T07:37:32;97168.59;;;3.61;100.00
48077;BME280;33854;57.708;12.008;2023-03-21T07:39:57;97191.81;;;3.61;100.00
48077;BME280;33854;57.708;12.008;2023-03-21T07:42:23;97204.56;;;3.62;100.00
48077;BME280;33854;57.708;12.008;2023-03-21T07:44:48;97208.34;;;3.69;100.00
48077;BME280;33854;57.708;12.008;2023-03-21T07:47:15;97225.78;;;3.66;100.00
48077;BME280;33854;57.708;12.008;2023-03-21T07:49:40;97229.81;;;3.70;100.00
48077;BME280;33854;57.708;12.008;2023-03-21T07:52:06;97226.03;;;3.63;100.00
48077;BME280;33854;57.708;12.008;2023-03-21T07:54:32;97249.16;;;3.75;100.00
48077;BME280;33854;57.708;12.008;2023-03-21T07:56:58;97283.97;;;3.70;100.00
48077;BME280;33854;57.708;12.008;2023-03-21T07:59:23;97332.56;;;3.63;100.00
48077;BME280;33854;57.708;12.008;2023-03-21T08:01:49;97353.16;;;3.76;100.00
48077;BME280;33854;57.708;12.008;2023-03-21T08:04:14;97368.97;;;3.82;100.00
48077;BME280;33854;57.708;12.008;2023-03-21T08:06:40;97387.66;;;3.86;100.00
48077;BME280;33854;57.708;12.008;2023-03-21T08:09:06;97410.00;;;3.98;100.00
48077;BME280;33854;57.708;12.008;2023-03-21T08:11:32;97460.63;;;3.99;100.00
48077;BME280;33854;57.708;12.008;2023-03-21T08:13:58;97493.25;;;4.00;100.00
48077;BME280;33854;57.708;12.008;2023-03-21T08:16:24;97547.03;;;4.06;100.00
48077;BME280;33854;57.708;12.008;2023-03-21T08:18:50;97603.59;;;3.96;100.00
48077;BME280;33854;57.708;12.008;2023-03-21T08:21:15;97645.91;;;3.94;100.00
48077;BME280;33854;57.708;12.008;2023-03-21T08:23:41;97671.72;;;4.07;100.00
48077;BME280;33854;57.708;12.008;2023-03-21T08:26:07;97700.59;;;3.99;100.00
48077;BME280;33854;57.708;12.008;2023-03-21T08:28:33;97780.59;;;4.12;100.00
48077;BME280;33854;57.708;12.008;2023-03-21T08:31:06;97873.91;;;3.93;100.00
48077;BME280;33854;57.708;12.008;2023-03-21T08:33:31;97902.41;;;4.04;100.00
48077;BME280;33854;57.708;12.008;2023-03-21T08:35:59;97924.16;;;4.00;100.00
48077;BME280;33854;57.708;12.008;2023-03-21T08:38:24;97959.22;;;4.17;100.00
48077;BME280;33854;57.708;12.008;2023-03-21T08:40:56;97982.38;;;4.18;100.00
48077;BME280;33854;57.708;12.008;2023-03-21T08:43:22;98025.03;;;4.24;100.00
48077;BME280;33854;57.708;12.008;2023-03-21T08:45:48;98084.47;;;4.22;100.00
48077;BME280;33854;57.708;12.008;2023-03-21T08:48:13;98118.03;;;4.22;100.00
48077;BME280;33854;57.708;12.008;2023-03-21T08:50:39;98141.47;;;4.33;100.00
48077;BME280;33854;57.708;12.008;2023-03-21T08:53:05;98215.94;;;4.39;100.00
48077;BME280;33854;57.708;12.008;2023-03-21T08:55:30;98259.28;;;4.48;100.00
48077;BME280;33854;57.708;12.008;2023-03-21T08:57:58;98314.47;;;4.62;100.00
48077;BME280;33854;57.708;12.008;2023-03-21T09:00:24;98390.59;;;4.70;100.00
48077;BME280;33854;57.708;12.008;2023-03-21T09:02:50;98528.06;;;4.61;100.00
48077;BME280;33854;57.708;12.008;2023-03-21T09:05:17;98631.38;;;4.61;100.00
48077;BME280;33854;57.708;12.008;2023-03-21T09:07:44;98656.63;;;4.72;100.00
48077;BME280;33854;57.708;12.008;2023-03-21T09:10:12;98708.47;;;4.69;100.00
48077;BME280;33854;57.708;12.008;2023-03-21T09:12:38;98767.66;;;4.73;100.00
48077;BME280;33854;57.708;12.008;2023-03-21T09:15:06;98780.66;;;4.72;100.00
48077;BME280;33854;57.708;12.008;2023-03-21T09:17:31;98798.28;;;4.96;100.00
48077;BME280;33854;57.708;12.008;2023-03-21T09:19:57;98893.34;;;5.07;100.00
48077;BME280;33854;57.708;12.008;2023-03-21T09:22:25;98937.03;;;4.96;100.00
48077;BME280;33854;57.708;12.008;2023-03-21T09:24:51;98942.38;;;5.08;100.00
48077;BME280;33854;57.708;12.008;2023-03-21T09:27:18;98953.19;;;5.16;100.00
48077;BME280;33854;57.708;12.008;2023-03-21T09:29:48;99013.25;;;5.22;100.00
48077;BME280;33854;57.708;12.008;2023-03-21T09:32:14;99108.84;;;5.23;100.00
48077;BME280;33854;57.708;12.008;2023-03-21T09:34:40;99194.75;;;5.30;100.00
48077;BME280;33854;57.708;12.008;2023-03-21T09:37:09;99214.03;;;5.58;100.00
48077;BME280;33854;57.708;12.008;2023-03-21T09:39:41;99219.66;;;5.66;100.00
48077;BME280;33854;57.708;12.008;2023-03-21T09:47:38;99420.50;;;5.33;100.00
48077;BME280;33854;57.708;12.008;2023-03-21T09:50:28;99442.03;;;5.52;100.00
48077;BME280;33854;57.708;12.008;2023-03-21T09:53:03;99427.19;;;5.74;100.00
48077;BME280;33854;57.708;12.008;2023-03-21T09:55:35;99481.34;;;5.79;100.00
48077;BME280;33854;57.708;12.008;2023-03-21T09:58:23;99520.50;;;5.71;100.00
48077;BME280;33854;57.708;12.008;2023-03-21T10:01:08;99543.88;;;5.70;100.00
48077;BME280;33854;57.708;12.008;2023-03-21T10:03:35;99509.34;;;5.90;100.00
48077;BME280;33854;57.708;12.008;2023-03-21T10:06:12;99542.88;;;5.93;100.00
48077;BME280;33854;57.708;12.008;2023-03-21T10:08:40;99453.47;;;5.84;100.00
48077;BME280;33854;57.708;12.008;2023-03-21T10:11:18;99308.56;;;5.83;100.00
48077;BME280;33854;57.708;12.008;2023-03-21T10:13:54;99201.75;;;5.79;100.00
48077;BME280;33854;57.708;12.008;2023-03-21T10:18:53;99250.84;;;6.15;100.00
48077;BME280;33854;57.708;12.008;2023-03-21T10:21:24;99280.50;;;6.09;100.00
48077;BME280;33854;57.708;12.008;2023-03-21T10:23:52;99267.09;;;6.18;100.00
48077;BME280;33854;57.708;12.008;2023-03-21T10:26:20;99293.38;;;6.11;100.00
48077;BME280;33854;57.708;12.008;2023-03-21T10:28:48;99342.91;;;6.22;100.00
48077;BME280;33854;57.708;12.008;2023-03-21T10:31:17;99478.75;;;6.16;100.00
48077;BME280;33854;57.708;12.008;2023-03-21T10:33:45;99659.97;;;6.55;100.00
48077;BME280;33854;57.708;12.008;2023-03-21T10:36:15;99694.44;;;6.57;100.00
48077;BME280;33854;57.708;12.008;2023-03-21T10:38:48;99689.78;;;6.65;100.00
48077;BME280;33854;57.708;12.008;2023-03-21T10:41:14;99743.16;;;6.88;100.00
48077;BME280;33854;57.708;12.008;2023-03-21T10:43:41;99789.91;;;7.05;100.00
48077;BME280;33854;57.708;12.008;2023-03-21T10:46:12;99863.38;;;6.87;100.00
48077;BME280;33854;57.708;12.008;2023-03-21T10:48:43;99857.00;;;6.55;100.00
48077;BME280;33854;57.708;12.008;2023-03-21T10:51:18;99841.44;;;6.94;100.00
48077;BME280;33854;57.708;12.008;2023-03-21T10:53:49;99867.09;;;7.00;100.00
48077;BME280;33854;57.708;12.008;2023-03-21T10:56:16;99861.06;;;7.00;100.00
48077;BME280;33854;57.708;12.008;2023-03-21T10:58:44;99860.13;;;7.01;100.00
48077;BME280;33854;57.708;12.008;2023-03-21T11:01:15;99839.13;;;7.07;100.00
48077;BME280;33854;57.708;12.008;2023-03-21T11:03:46;99842.16;;;7.52;100.00
48077;BME280;33854;57.708;12.008;2023-03-21T11:06:21;99884.09;;;7.80;100.00
48077;BME280;33854;57.708;12.008;2023-03-21T11:08:54;99935.19;;;7.24;100.00
48077;BME280;33854;57.708;12.008;2023-03-21T11:14:46;99873.31;;;7.52;100.00
48077;BME280;33854;57.708;12.008;2023-03-21T11:17:23;99904.06;;;7.42;100.00
48077;BME280;33854;57.708;12.008;2023-03-21T11:22:24;99859.09;;;7.95;100.00
48077;BME280;33854;57.708;12.008;2023-03-21T11:24:58;99924.25;;;7.73;100.00
48077;BME280;33854;57.708;12.008;2023-03-21T11:27:27;99874.44;;;7.65;100.00
48077;BME280;33854;57.708;12.008;2023-03-21T11:29:55;99878.50;;;7.71;100.00
48077;BME280;33854;57.708;12.008;2023-03-21T11:32:25;99978.63;;;7.39;100.00
48077;BME280;33854;57.708;12.008;2023-03-21T11:35:00;99979.41;;;7.41;100.00
48077;BME280;33854;57.708;12.008;2023-03-21T11:37:32;99986.16;;;7.82;100.00
48077;BME280;33854;57.708;12.008;2023-03-21T11:42:44;99948.25;;;7.78;100.00
48077;BME280;33854;57.708;12.008;2023-03-21T11:45:18;99940.44;;;7.97;100.00
48077;BME280;33854;57.708;12.008;2023-03-21T11:47:45;100000.91;;;8.00;100.00
48077;BME280;33854;57.708;12.008;2023-03-21T11:50:36;100057.06;;;7.84;100.00
48077;BME280;33854;57.708;12.008;2023-03-21T11:53:31;100049.06;;;7.89;100.00
48077;BME280;33854;57.708;12.008;2023-03-21T12:16:47;100021.53;;;9.75;100.00
48077;BME280;33854;57.708;12.008;2023-03-21T12:19:38;100014.25;;;9.49;100.00
48077;BME280;33854;57.708;12.008;2023-03-21T12:25:18;100020.22;;;10.76;100.00
48077;BME280;33854;57.708;12.008;2023-03-21T12:38:22;100053.66;;;10.54;100.00
48077;BME280;33854;57.708;12.008;2023-03-21T12:44:18;100157.41;;;9.50;100.00
48077;BME280;33854;57.708;12.008;2023-03-21T12:46:43;100164.31;;;9.34;100.00
48077;BME280;33854;57.708;12.008;2023-03-21T12:52:00;100147.41;;;9.43;100.00
48077;BME280;33854;57.708;12.008;2023-03-21T13:00:16;100140.22;;;8.78;100.00
48077;BME280;33854;57.708;12.008;2023-03-21T13:03:34;100132.22;;;8.99;100.00
48077;BME280;33854;57.708;12.008;2023-03-21T13:06:05;100136.06;;;9.44;100.00
48077;BME280;33854;57.708;12.008;2023-03-21T13:11:05;100099.84;;;9.72;100.00
48077;BME280;33854;57.708;12.008;2023-03-21T13:16:32;100119.59;;;9.76;100.00
48077;BME280;33854;57.708;12.008;2023-03-21T13:25:22;100049.06;;;8.26;100.00
48077;BME280;33854;57.708;12.008;2023-03-21T13:28:00;100023.25;;;8.22;100.00
48077;BME280;33854;57.708;12.008;2023-03-21T13:30:28;99999.63;;;8.09;100.00
48077;BME280;33854;57.708;12.008;2023-03-21T13:33:04;99984.31;;;7.84;100.00
48077;BME280;33854;57.708;12.008;2023-03-21T13:35:39;99937.75;;;7.63;100.00
48077;BME280;33854;57.708;12.008;2023-03-21T13:38:19;99910.38;;;7.74;100.00
48077;BME280;33854;57.708;12.008;2023-03-21T13:41:06;99892.94;;;7.58;100.00
48077;BME280;33854;57.708;12.008;2023-03-21T13:46:11;99809.16;;;7.37;100.00
48077;BME280;33854;57.708;12.008;2023-03-21T13:51:49;99783.69;;;7.26;100.00
48077;BME280;33854;57.708;12.008;2023-03-21T13:54:18;99785.53;;;7.24;100.00
48077;BME280;33854;57.708;12.008;2023-03-21T14:04:36;99527.25;;;6.66;100.00
48077;BME280;33854;57.708;12.008;2023-03-21T14:07:06;99460.41;;;6.55;100.00
48077;BME280;33854;57.708;12.008;2023-03-21T14:09:46;99373.38;;;6.51;100.00
48077;BME280;33854;57.708;12.008;2023-03-21T14:12:17;99313.13;;;6.46;100.00
48077;BME280;33854;57.708;12.008;2023-03-21T14:14:53;99268.38;;;6.27;100.00
48077;BME280;33854;57.708;12.008;2023-03-21T14:17:27;99211.47;;;6.25;100.00
48077;BME280;33854;57.708;12.008;2023-03-21T14:20:16;99214.22;;;6.22;100.00
48077;BME280;33854;57.708;12.008;2023-03-21T14:22:40;99202.75;;;6.11;100.00
48077;BME280;33854;57.708;12.008;2023-03-21T14:25:11;99201.22;;;6.07;100.00
48077;BME280;33854;57.708;12.008;2023-03-21T14:27:42;99227.09;;;6.07;100.00
48077;BME280;33854;57.708;12.008;2023-03-21T14:30:26;99240.91;;;6.07;100.00
48077;BME280;33854;57.708;12.008;2023-03-21T14:32:54;99260.88;;;6.05;100.00
48077;BME280;33854;57.708;12.008;2023-03-21T14:35:24;99253.75;;;6.09;100.00
48077;BME280;33854;57.708;12.008;2023-03-21T14:37:52;99265.94;;;6.07;100.00
48077;BME280;33854;57.708;12.008;2023-03-21T14:40:26;99247.53;;;5.96;100.00
48077;BME280;33854;57.708;12.008;2023-03-21T14:42:53;99241.59;;;5.94;100.00
48077;BME280;33854;57.708;12.008;2023-03-21T14:45:24;99224.13;;;5.97;100.00
48077;BME280;33854;57.708;12.008;2023-03-21T14:50:23;99201.63;;;6.15;100.00
48077;BME280;33854;57.708;12.008;2023-03-21T14:52:51;99202.56;;;6.14;100.00
48077;BME280;33854;57.708;12.008;2023-03-21T14:55:17;99184.47;;;5.97;100.00
48077;BME280;33854;57.708;12.008;2023-03-21T14:57:43;99170.88;;;6.09;100.00
48077;BME280;33854;57.708;12.008;2023-03-21T15:00:18;99163.72;;;6.14;100.00
48077;BME280;33854;57.708;12.008;2023-03-21T15:02:45;99135.56;;;6.23;100.00